sensor_id;sensor_type;location;lat;lon;timestamp;P1;durP1;ratioP1;P2;durP2;ratioP2
70410;SDS011;57832;46.038;11.398;2023-04-03T00:00:47;0.00;;;0.00;;
70410;SDS011;57832;46.038;11.398;2023-04-03T00:03:14;0.00;;;0.00;;
70410;SDS011;57832;46.038;11.398;2023-04-03T00:05:40;0.00;;;0.00;;
70410;SDS011;57832;46.038;11.398;2023-04-03T00:08:06;0.00;;;0.00;;
70410;SDS011;57832;46.038;11.398;2023-04-03T00:10:33;0.00;;;0.00;;
70410;SDS011;57832;46.038;11.398;2023-04-03T00:12:59;0.00;;;0.00;;
70410;SDS011;57832;46.038;11.398;2023-04-03T00:15:24;0.00;;;0.00;;
70410;SDS011;57832;46.038;11.398;2023-04-03T00:17:50;0.00;;;0.00;;
70410;SDS011;57832;46.038;11.398;2023-04-03T00:20:15;0.00;;;0.00;;
70410;SDS011;57832;46.038;11.398;2023-04-03T00:22:41;0.00;;;0.00;;
70410;SDS011;57832;46.038;11.398;2023-04-03T00:25:07;0.00;;;0.00;;
70410;SDS011;57832;46.038;11.398;2023-04-03T00:27:33;0.00;;;0.00;;
70410;SDS011;57832;46.038;11.398;2023-04-03T00:29:58;0.00;;;0.00;;
70410;SDS011;57832;46.038;11.398;2023-04-03T00:32:24;0.00;;;0.00;;
70410;SDS011;57832;46.038;11.398;2023-04-03T00:34:49;0.00;;;0.00;;
70410;SDS011;57832;46.038;11.398;2023-04-03T00:37:15;0.00;;;0.00;;
70410;SDS011;57832;46.038;11.398;2023-04-03T00:39:40;0.00;;;0.00;;
70410;SDS011;57832;46.038;11.398;2023-04-03T00:42:06;0.00;;;0.00;;
70410;SDS011;57832;46.038;11.398;2023-04-03T00:47:00;0.00;;;0.00;;
70410;SDS011;57832;46.038;11.398;2023-04-03T00:49:28;0.00;;;0.00;;
70410;SDS011;57832;46.038;11.398;2023-04-03T00:51:54;0.00;;;0.00;;
70410;SDS011;57832;46.038;11.398;2023-04-03T00:54:22;0.00;;;0.00;;
70410;SDS011;57832;46.038;11.398;2023-04-03T00:56:47;0.00;;;0.00;;
70410;SDS011;57832;46.038;11.398;2023-04-03T00:59:15;0.00;;;0.00;;
70410;SDS011;57832;46.038;11.398;2023-04-03T01:01:46;0.00;;;0.00;;
70410;SDS011;57832;46.038;11.398;2023-04-03T01:04:32;0.00;;;0.00;;
70410;SDS011;57832;46.038;11.398;2023-04-03T01:07:02;0.00;;;0.00;;
70410;SDS011;57832;46.038;11.398;2023-04-03T01:09:31;0.00;;;0.00;;
70410;SDS011;57832;46.038;11.398;2023-04-03T01:14:45;0.00;;;0.00;;
70410;SDS011;57832;46.038;11.398;2023-04-03T01:17:27;0.00;;;0.00;;
70410;SDS011;57832;46.038;11.398;2023-04-03T01:19:57;0.00;;;0.00;;
70410;SDS011;57832;46.038;11.398;2023-04-03T01:22:42;0.00;;;0.00;;
70410;SDS011;57832;46.038;11.398;2023-04-03T01:25:11;0.00;;;0.00;;
70410;SDS011;57832;46.038;11.398;2023-04-03T01:27:36;0.10;;;0.10;;
70410;SDS011;57832;46.038;11.398;2023-04-03T01:30:02;0.00;;;0.00;;
70410;SDS011;57832;46.038;11.398;2023-04-03T01:32:28;0.00;;;0.00;;
70410;SDS011;57832;46.038;11.398;2023-04-03T01:34:53;0.00;;;0.00;;
70410;SDS011;57832;46.038;11.398;2023-04-03T01:37:19;0.00;;;0.00;;
70410;SDS011;57832;46.038;11.398;2023-04-03T01:39:45;0.00;;;0.00;;
70410;SDS011;57832;46.038;11.398;2023-04-03T01:42:10;0.00;;;0.00;;
70410;SDS011;57832;46.038;11.398;2023-04-03T01:44:36;0.00;;;0.00;;
70410;SDS011;57832;46.038;11.398;2023-04-03T01:47:02;0.00;;;0.00;;
70410;SDS011;57832;46.038;11.398;2023-04-03T01:49:30;0.10;;;0.10;;
70410;SDS011;57832;46.038;11.398;2023-04-03T01:51:55;0.00;;;0.00;;
70410;SDS011;57832;46.038;11.398;2023-04-03T01:54:21;0.00;;;0.00;;
70410;SDS011;57832;46.038;11.398;2023-04-03T01:56:46;0.00;;;0.00;;
70410;SDS011;57832;46.038;11.398;2023-04-03T01:59:12;0.00;;;0.00;;
70410;SDS011;57832;46.038;11.398;2023-04-03T02:01:37;0.00;;;0.00;;
70410;SDS011;57832;46.038;11.398;2023-04-03T02:04:03;0.00;;;0.00;;
70410;SDS011;57832;46.038;11.398;2023-04-03T02:06:28;0.00;;;0.00;;
70410;SDS011;57832;46.038;11.398;2023-04-03T02:08:54;0.00;;;0.00;;
70410;SDS011;57832;46.038;11.398;2023-04-03T02:11:20;0.00;;;0.00;;
70410;SDS011;57832;46.038;11.398;2023-04-03T02:13:45;0.00;;;0.00;;
70410;SDS011;57832;46.038;11.398;2023-04-03T02:16:11;0.00;;;0.00;;
70410;SDS011;57832;46.038;11.398;2023-04-03T02:18:37;0.00;;;0.00;;
70410;SDS011;57832;46.038;11.398;2023-04-03T02:21:03;0.00;;;0.00;;
70410;SDS011;57832;46.038;11.398;2023-04-03T02:23:29;0.00;;;0.00;;
70410;SDS011;57832;46.038;11.398;2023-04-03T02:26:02;0.00;;;0.00;;
70410;SDS011;57832;46.038;11.398;2023-04-03T02:28:29;0.00;;;0.00;;
70410;SDS011;57832;46.038;11.398;2023-04-03T02:30:54;0.00;;;0.00;;
70410;SDS011;57832;46.038;11.398;2023-04-03T02:33:20;0.00;;;0.00;;
70410;SDS011;57832;46.038;11.398;2023-04-03T02:35:45;0.00;;;0.00;;
70410;SDS011;57832;46.038;11.398;2023-04-03T02:38:18;0.00;;;0.00;;
70410;SDS011;57832;46.038;11.398;2023-04-03T02:40:43;0.00;;;0.00;;
70410;SDS011;57832;46.038;11.398;2023-04-03T02:43:09;0.00;;;0.00;;
70410;SDS011;57832;46.038;11.398;2023-04-03T02:45:35;0.00;;;0.00;;
70410;SDS011;57832;46.038;11.398;2023-04-03T02:48:00;0.00;;;0.00;;
70410;SDS011;57832;46.038;11.398;2023-04-03T02:50:26;0.00;;;0.00;;
70410;SDS011;57832;46.038;11.398;2023-04-03T02:52:51;0.00;;;0.00;;
70410;SDS011;57832;46.038;11.398;2023-04-03T02:55:17;0.00;;;0.00;;
70410;SDS011;57832;46.038;11.398;2023-04-03T02:57:42;0.00;;;0.00;;
70410;SDS011;57832;46.038;11.398;2023-04-03T03:00:08;0.10;;;0.10;;
70410;SDS011;57832;46.038;11.398;2023-04-03T03:02:34;0.00;;;0.00;;
70410;SDS011;57832;46.038;11.398;2023-04-03T03:05:00;0.00;;;0.00;;
70410;SDS011;57832;46.038;11.398;2023-04-03T03:07:25;0.00;;;0.00;;
70410;SDS011;57832;46.038;11.398;2023-04-03T03:09:51;0.00;;;0.00;;
70410;SDS011;57832;46.038;11.398;2023-04-03T03:12:17;0.00;;;0.00;;
70410;SDS011;57832;46.038;11.398;2023-04-03T03:14:46;0.00;;;0.00;;
70410;SDS011;57832;46.038;11.398;2023-04-03T03:17:12;0.00;;;0.00;;
70410;SDS011;57832;46.038;11.398;2023-04-03T03:19:38;0.00;;;0.00;;
70410;SDS011;57832;46.038;11.398;2023-04-03T03:22:04;0.00;;;0.00;;
70410;SDS011;57832;46.038;11.398;2023-04-03T03:24:29;0.00;;;0.00;;
70410;SDS011;57832;46.038;11.398;2023-04-03T03:26:55;0.00;;;0.00;;
70410;SDS011;57832;46.038;11.398;2023-04-03T03:29:21;0.00;;;0.00;;
70410;SDS011;57832;46.038;11.398;2023-04-03T03:31:46;0.00;;;0.00;;
70410;SDS011;57832;46.038;11.398;2023-04-03T03:34:12;0.00;;;0.00;;
70410;SDS011;57832;46.038;11.398;2023-04-03T03:36:38;0.00;;;0.00;;
70410;SDS011;57832;46.038;11.398;2023-04-03T03:39:04;0.00;;;0.00;;
70410;SDS011;57832;46.038;11.398;2023-04-03T03:41:29;0.00;;;0.00;;
70410;SDS011;57832;46.038;11.398;2023-04-03T03:43:56;0.00;;;0.00;;
70410;SDS011;57832;46.038;11.398;2023-04-03T03:46:21;0.00;;;0.00;;
70410;SDS011;57832;46.038;11.398;2023-04-03T03:48:47;0.00;;;0.00;;
70410;SDS011;57832;46.038;11.398;2023-04-03T03:51:12;0.00;;;0.00;;
70410;SDS011;57832;46.038;11.398;2023-04-03T03:53:38;0.00;;;0.00;;
70410;SDS011;57832;46.038;11.398;2023-04-03T03:56:03;0.00;;;0.00;;
70410;SDS011;57832;46.038;11.398;2023-04-03T03:58:29;0.00;;;0.00;;
70410;SDS011;57832;46.038;11.398;2023-04-03T04:00:55;0.00;;;0.00;;
70410;SDS011;57832;46.038;11.398;2023-04-03T04:03:20;0.00;;;0.00;;
70410;SDS011;57832;46.038;11.398;2023-04-03T04:05:46;0.00;;;0.00;;
70410;SDS011;57832;46.038;11.398;2023-04-03T04:08:12;0.00;;;0.00;;
70410;SDS011;57832;46.038;11.398;2023-04-03T04:10:37;0.00;;;0.00;;
70410;SDS011;57832;46.038;11.398;2023-04-03T04:13:03;0.00;;;0.00;;
70410;SDS011;57832;46.038;11.398;2023-04-03T04:15:29;0.00;;;0.00;;
70410;SDS011;57832;46.038;11.398;2023-04-03T04:17:54;0.00;;;0.00;;
70410;SDS011;57832;46.038;11.398;2023-04-03T04:20:20;0.00;;;0.00;;
70410;SDS011;57832;46.038;11.398;2023-04-03T04:22:46;0.00;;;0.00;;
70410;SDS011;57832;46.038;11.398;2023-04-03T04:25:11;0.00;;;0.00;;
70410;SDS011;57832;46.038;11.398;2023-04-03T04:27:37;0.00;;;0.00;;
70410;SDS011;57832;46.038;11.398;2023-04-03T04:30:03;0.00;;;0.00;;
70410;SDS011;57832;46.038;11.398;2023-04-03T04:32:29;0.10;;;0.10;;
70410;SDS011;57832;46.038;11.398;2023-04-03T04:34:55;0.05;;;0.05;;
70410;SDS011;57832;46.038;11.398;2023-04-03T04:37:21;0.00;;;0.00;;
70410;SDS011;57832;46.038;11.398;2023-04-03T04:39:46;0.00;;;0.00;;
70410;SDS011;57832;46.038;11.398;2023-04-03T04:42:12;0.00;;;0.00;;
70410;SDS011;57832;46.038;11.398;2023-04-03T04:44:40;0.00;;;0.00;;
70410;SDS011;57832;46.038;11.398;2023-04-03T04:47:06;0.00;;;0.00;;
70410;SDS011;57832;46.038;11.398;2023-04-03T04:49:31;0.00;;;0.00;;
70410;SDS011;57832;46.038;11.398;2023-04-03T04:51:57;0.00;;;0.00;;
70410;SDS011;57832;46.038;11.398;2023-04-03T04:54:22;0.00;;;0.00;;
70410;SDS011;57832;46.038;11.398;2023-04-03T04:56:48;0.10;;;0.10;;
70410;SDS011;57832;46.038;11.398;2023-04-03T04:59:13;0.00;;;0.00;;
70410;SDS011;57832;46.038;11.398;2023-04-03T05:01:39;0.00;;;0.00;;
70410;SDS011;57832;46.038;11.398;2023-04-03T05:04:05;0.00;;;0.00;;
70410;SDS011;57832;46.038;11.398;2023-04-03T05:06:30;0.00;;;0.00;;
70410;SDS011;57832;46.038;11.398;2023-04-03T05:08:57;0.10;;;0.10;;
70410;SDS011;57832;46.038;11.398;2023-04-03T05:11:23;0.00;;;0.00;;
70410;SDS011;57832;46.038;11.398;2023-04-03T05:13:49;0.00;;;0.00;;
70410;SDS011;57832;46.038;11.398;2023-04-03T05:16:14;0.00;;;0.00;;
70410;SDS011;57832;46.038;11.398;2023-04-03T05:18:40;0.00;;;0.00;;
70410;SDS011;57832;46.038;11.398;2023-04-03T05:21:06;0.10;;;0.10;;
70410;SDS011;57832;46.038;11.398;2023-04-03T05:23:31;0.00;;;0.00;;
70410;SDS011;57832;46.038;11.398;2023-04-03T05:25:57;0.00;;;0.00;;
70410;SDS011;57832;46.038;11.398;2023-04-03T05:28:23;0.03;;;0.03;;
70410;SDS011;57832;46.038;11.398;2023-04-03T05:30:52;0.00;;;0.00;;
70410;SDS011;57832;46.038;11.398;2023-04-03T05:33:22;0.00;;;0.00;;
70410;SDS011;57832;46.038;11.398;2023-04-03T05:35:48;0.00;;;0.00;;
70410;SDS011;57832;46.038;11.398;2023-04-03T05:38:14;0.00;;;0.00;;
70410;SDS011;57832;46.038;11.398;2023-04-03T05:40:40;0.10;;;0.10;;
70410;SDS011;57832;46.038;11.398;2023-04-03T05:43:05;0.00;;;0.00;;
70410;SDS011;57832;46.038;11.398;2023-04-03T05:45:31;0.00;;;0.00;;
70410;SDS011;57832;46.038;11.398;2023-04-03T05:47:57;0.00;;;0.00;;
70410;SDS011;57832;46.038;11.398;2023-04-03T05:50:22;0.00;;;0.00;;
70410;SDS011;57832;46.038;11.398;2023-04-03T05:52:48;0.00;;;0.00;;
70410;SDS011;57832;46.038;11.398;2023-04-03T05:55:16;0.00;;;0.00;;
70410;SDS011;57832;46.038;11.398;2023-04-03T05:57:42;0.00;;;0.00;;
70410;SDS011;57832;46.038;11.398;2023-04-03T06:00:07;0.00;;;0.00;;
70410;SDS011;57832;46.038;11.398;2023-04-03T06:02:37;0.00;;;0.00;;
70410;SDS011;57832;46.038;11.398;2023-04-03T06:05:03;0.00;;;0.00;;
70410;SDS011;57832;46.038;11.398;2023-04-03T06:07:30;0.10;;;0.10;;
70410;SDS011;57832;46.038;11.398;2023-04-03T06:09:56;0.00;;;0.00;;
70410;SDS011;57832;46.038;11.398;2023-04-03T06:12:22;0.00;;;0.00;;
70410;SDS011;57832;46.038;11.398;2023-04-03T06:14:48;0.10;;;0.10;;
70410;SDS011;57832;46.038;11.398;2023-04-03T06:17:15;0.00;;;0.00;;
70410;SDS011;57832;46.038;11.398;2023-04-03T06:19:42;0.00;;;0.00;;
70410;SDS011;57832;46.038;11.398;2023-04-03T06:22:08;0.00;;;0.00;;
70410;SDS011;57832;46.038;11.398;2023-04-03T06:24:34;0.00;;;0.00;;
70410;SDS011;57832;46.038;11.398;2023-04-03T06:27:00;0.00;;;0.00;;
70410;SDS011;57832;46.038;11.398;2023-04-03T06:29:26;0.00;;;0.00;;
70410;SDS011;57832;46.038;11.398;2023-04-03T06:31:51;0.00;;;0.00;;
70410;SDS011;57832;46.038;11.398;2023-04-03T06:34:17;0.00;;;0.00;;
70410;SDS011;57832;46.038;11.398;2023-04-03T06:36:43;0.00;;;0.00;;
70410;SDS011;57832;46.038;11.398;2023-04-03T06:39:18;0.00;;;0.00;;
70410;SDS011;57832;46.038;11.398;2023-04-03T06:41:48;0.00;;;0.00;;
70410;SDS011;57832;46.038;11.398;2023-04-03T06:44:15;0.00;;;0.00;;
70410;SDS011;57832;46.038;11.398;2023-04-03T06:46:41;0.00;;;0.00;;
70410;SDS011;57832;46.038;11.398;2023-04-03T06:49:08;0.00;;;0.00;;
70410;SDS011;57832;46.038;11.398;2023-04-03T06:51:34;0.00;;;0.00;;
70410;SDS011;57832;46.038;11.398;2023-04-03T06:54:00;0.00;;;0.00;;
70410;SDS011;57832;46.038;11.398;2023-04-03T06:58:56;0.00;;;0.00;;
70410;SDS011;57832;46.038;11.398;2023-04-03T07:01:25;0.00;;;0.00;;
70410;SDS011;57832;46.038;11.398;2023-04-03T07:03:52;0.00;;;0.00;;
70410;SDS011;57832;46.038;11.398;2023-04-03T07:06:19;0.00;;;0.00;;
70410;SDS011;57832;46.038;11.398;2023-04-03T07:08:45;0.00;;;0.00;;
70410;SDS011;57832;46.038;11.398;2023-04-03T07:11:11;0.00;;;0.00;;
70410;SDS011;57832;46.038;11.398;2023-04-03T07:13:37;0.00;;;0.00;;
70410;SDS011;57832;46.038;11.398;2023-04-03T07:16:03;0.00;;;0.00;;
70410;SDS011;57832;46.038;11.398;2023-04-03T07:20:56;0.00;;;0.00;;
70410;SDS011;57832;46.038;11.398;2023-04-03T07:23:22;0.00;;;0.00;;
70410;SDS011;57832;46.038;11.398;2023-04-03T07:25:48;0.00;;;0.00;;
70410;SDS011;57832;46.038;11.398;2023-04-03T07:28:16;0.00;;;0.00;;
70410;SDS011;57832;46.038;11.398;2023-04-03T07:30:43;0.00;;;0.00;;
70410;SDS011;57832;46.038;11.398;2023-04-03T07:33:11;0.00;;;0.00;;
70410;SDS011;57832;46.038;11.398;2023-04-03T07:35:38;0.00;;;0.00;;
70410;SDS011;57832;46.038;11.398;2023-04-03T07:38:04;0.00;;;0.00;;
70410;SDS011;57832;46.038;11.398;2023-04-03T07:40:29;0.00;;;0.00;;
70410;SDS011;57832;46.038;11.398;2023-04-03T07:42:55;0.00;;;0.00;;
70410;SDS011;57832;46.038;11.398;2023-04-03T07:45:21;0.00;;;0.00;;
70410;SDS011;57832;46.038;11.398;2023-04-03T07:47:48;0.00;;;0.00;;
70410;SDS011;57832;46.038;11.398;2023-04-03T07:50:14;0.00;;;0.00;;
70410;SDS011;57832;46.038;11.398;2023-04-03T07:52:40;0.00;;;0.00;;
70410;SDS011;57832;46.038;11.398;2023-04-03T07:55:06;0.00;;;0.00;;
70410;SDS011;57832;46.038;11.398;2023-04-03T07:57:32;0.00;;;0.00;;
70410;SDS011;57832;46.038;11.398;2023-04-03T07:59:57;0.00;;;0.00;;
70410;SDS011;57832;46.038;11.398;2023-04-03T08:02:23;0.00;;;0.00;;
70410;SDS011;57832;46.038;11.398;2023-04-03T08:04:49;0.00;;;0.00;;
70410;SDS011;57832;46.038;11.398;2023-04-03T08:07:14;0.00;;;0.00;;
70410;SDS011;57832;46.038;11.398;2023-04-03T08:09:40;0.00;;;0.00;;
70410;SDS011;57832;46.038;11.398;2023-04-03T08:12:05;0.00;;;0.00;;
70410;SDS011;57832;46.038;11.398;2023-04-03T08:14:31;0.00;;;0.00;;
70410;SDS011;57832;46.038;11.398;2023-04-03T08:16:59;0.00;;;0.00;;
70410;SDS011;57832;46.038;11.398;2023-04-03T08:19:25;0.00;;;0.00;;
70410;SDS011;57832;46.038;11.398;2023-04-03T08:21:51;0.00;;;0.00;;
70410;SDS011;57832;46.038;11.398;2023-04-03T08:24:17;0.00;;;0.00;;
70410;SDS011;57832;46.038;11.398;2023-04-03T08:26:42;0.00;;;0.00;;
70410;SDS011;57832;46.038;11.398;2023-04-03T08:29:08;0.00;;;0.00;;
70410;SDS011;57832;46.038;11.398;2023-04-03T08:31:33;0.00;;;0.00;;
70410;SDS011;57832;46.038;11.398;2023-04-03T08:33:59;0.00;;;0.00;;
70410;SDS011;57832;46.038;11.398;2023-04-03T08:36:28;0.00;;;0.00;;
70410;SDS011;57832;46.038;11.398;2023-04-03T08:38:55;0.00;;;0.00;;
70410;SDS011;57832;46.038;11.398;2023-04-03T08:44:11;0.00;;;0.00;;
70410;SDS011;57832;46.038;11.398;2023-04-03T08:46:52;0.00;;;0.00;;
70410;SDS011;57832;46.038;11.398;2023-04-03T08:49:25;0.00;;;0.00;;
70410;SDS011;57832;46.038;11.398;2023-04-03T08:51:54;0.00;;;0.00;;
70410;SDS011;57832;46.038;11.398;2023-04-03T08:54:48;0.00;;;0.00;;
70410;SDS011;57832;46.038;11.398;2023-04-03T08:57:16;0.00;;;0.00;;
70410;SDS011;57832;46.038;11.398;2023-04-03T08:59:45;0.00;;;0.00;;
70410;SDS011;57832;46.038;11.398;2023-04-03T09:02:44;0.00;;;0.00;;
70410;SDS011;57832;46.038;11.398;2023-04-03T09:05:14;0.00;;;0.00;;
70410;SDS011;57832;46.038;11.398;2023-04-03T09:10:40;0.00;;;0.00;;
70410;SDS011;57832;46.038;11.398;2023-04-03T09:13:13;0.00;;;0.00;;
70410;SDS011;57832;46.038;11.398;2023-04-03T09:15:49;0.00;;;0.00;;
70410;SDS011;57832;46.038;11.398;2023-04-03T09:18:32;0.00;;;0.00;;
70410;SDS011;57832;46.038;11.398;2023-04-03T09:23:46;0.00;;;0.00;;
70410;SDS011;57832;46.038;11.398;2023-04-03T09:28:46;0.00;;;0.00;;
70410;SDS011;57832;46.038;11.398;2023-04-03T09:31:19;0.00;;;0.00;;
70410;SDS011;57832;46.038;11.398;2023-04-03T09:33:45;0.00;;;0.00;;
70410;SDS011;57832;46.038;11.398;2023-04-03T09:36:12;0.00;;;0.00;;
70410;SDS011;57832;46.038;11.398;2023-04-03T09:38:38;0.00;;;0.00;;
70410;SDS011;57832;46.038;11.398;2023-04-03T09:41:12;0.00;;;0.00;;
70410;SDS011;57832;46.038;11.398;2023-04-03T09:43:43;0.00;;;0.00;;
70410;SDS011;57832;46.038;11.398;2023-04-03T09:46:23;0.10;;;0.10;;
70410;SDS011;57832;46.038;11.398;2023-04-03T09:48:58;0.00;;;0.00;;
70410;SDS011;57832;46.038;11.398;2023-04-03T09:51:25;0.00;;;0.00;;
70410;SDS011;57832;46.038;11.398;2023-04-03T09:53:53;0.00;;;0.00;;
70410;SDS011;57832;46.038;11.398;2023-04-03T09:56:21;0.00;;;0.00;;
70410;SDS011;57832;46.038;11.398;2023-04-03T10:01:33;0.00;;;0.00;;
70410;SDS011;57832;46.038;11.398;2023-04-03T10:04:08;0.00;;;0.00;;
70410;SDS011;57832;46.038;11.398;2023-04-03T10:06:39;0.00;;;0.00;;
70410;SDS011;57832;46.038;11.398;2023-04-03T10:09:19;0.00;;;0.00;;
70410;SDS011;57832;46.038;11.398;2023-04-03T10:14:38;0.00;;;0.00;;
70410;SDS011;57832;46.038;11.398;2023-04-03T10:19:41;0.00;;;0.00;;
70410;SDS011;57832;46.038;11.398;2023-04-03T10:24:54;0.00;;;0.00;;
70410;SDS011;57832;46.038;11.398;2023-04-03T10:38:40;0.05;;;0.05;;
70410;SDS011;57832;46.038;11.398;2023-04-03T10:41:12;0.10;;;0.10;;
70410;SDS011;57832;46.038;11.398;2023-04-03T10:46:52;0.00;;;0.00;;
70410;SDS011;57832;46.038;11.398;2023-04-03T10:49:43;0.00;;;0.00;;
70410;SDS011;57832;46.038;11.398;2023-04-03T10:52:17;0.00;;;0.00;;
70410;SDS011;57832;46.038;11.398;2023-04-03T10:57:17;0.08;;;0.08;;
70410;SDS011;57832;46.038;11.398;2023-04-03T11:05:15;0.00;;;0.00;;
70410;SDS011;57832;46.038;11.398;2023-04-03T11:07:52;0.10;;;0.10;;
70410;SDS011;57832;46.038;11.398;2023-04-03T11:10:23;0.10;;;0.10;;
70410;SDS011;57832;46.038;11.398;2023-04-03T11:13:02;0.10;;;0.10;;
70410;SDS011;57832;46.038;11.398;2023-04-03T11:15:32;0.10;;;0.10;;
70410;SDS011;57832;46.038;11.398;2023-04-03T11:18:00;0.00;;;0.00;;
70410;SDS011;57832;46.038;11.398;2023-04-03T11:20:32;0.10;;;0.10;;
70410;SDS011;57832;46.038;11.398;2023-04-03T11:25:43;0.10;;;0.10;;
70410;SDS011;57832;46.038;11.398;2023-04-03T11:28:12;0.20;;;0.20;;
70410;SDS011;57832;46.038;11.398;2023-04-03T11:33:41;0.10;;;0.10;;
70410;SDS011;57832;46.038;11.398;2023-04-03T11:36:24;0.10;;;0.10;;
70410;SDS011;57832;46.038;11.398;2023-04-03T11:38:54;0.20;;;0.20;;
70410;SDS011;57832;46.038;11.398;2023-04-03T11:41:25;0.20;;;0.20;;
70410;SDS011;57832;46.038;11.398;2023-04-03T11:43:59;0.20;;;0.20;;
70410;SDS011;57832;46.038;11.398;2023-04-03T11:46:55;0.20;;;0.20;;
70410;SDS011;57832;46.038;11.398;2023-04-03T12:05:53;0.20;;;0.20;;
70410;SDS011;57832;46.038;11.398;2023-04-03T12:08:26;0.30;;;0.30;;
70410;SDS011;57832;46.038;11.398;2023-04-03T12:26:46;0.40;;;0.40;;
70410;SDS011;57832;46.038;11.398;2023-04-03T12:35:23;0.40;;;0.40;;
70410;SDS011;57832;46.038;11.398;2023-04-03T12:40:20;0.40;;;0.40;;
70410;SDS011;57832;46.038;11.398;2023-04-03T12:43:23;0.50;;;0.50;;
70410;SDS011;57832;46.038;11.398;2023-04-03T12:46:03;0.43;;;0.43;;
70410;SDS011;57832;46.038;11.398;2023-04-03T12:48:33;0.40;;;0.40;;
70410;SDS011;57832;46.038;11.398;2023-04-03T12:51:04;0.40;;;0.40;;
70410;SDS011;57832;46.038;11.398;2023-04-03T12:53:36;0.50;;;0.50;;
70410;SDS011;57832;46.038;11.398;2023-04-03T12:58:52;0.60;;;0.60;;
70410;SDS011;57832;46.038;11.398;2023-04-03T13:01:37;0.40;;;0.40;;
70410;SDS011;57832;46.038;11.398;2023-04-03T13:04:02;0.50;;;0.50;;
70410;SDS011;57832;46.038;11.398;2023-04-03T13:06:42;0.40;;;0.40;;
70410;SDS011;57832;46.038;11.398;2023-04-03T13:09:25;0.50;;;0.50;;
70410;SDS011;57832;46.038;11.398;2023-04-03T13:11:57;0.43;;;0.43;;
70410;SDS011;57832;46.038;11.398;2023-04-03T13:14:26;0.40;;;0.40;;
70410;SDS011;57832;46.038;11.398;2023-04-03T13:16:57;0.40;;;0.40;;
70410;SDS011;57832;46.038;11.398;2023-04-03T13:19:31;0.30;;;0.30;;
70410;SDS011;57832;46.038;11.398;2023-04-03T13:22:07;0.30;;;0.30;;
70410;SDS011;57832;46.038;11.398;2023-04-03T13:24:44;0.30;;;0.30;;
70410;SDS011;57832;46.038;11.398;2023-04-03T13:27:13;0.30;;;0.30;;
70410;SDS011;57832;46.038;11.398;2023-04-03T13:29:39;0.20;;;0.20;;
70410;SDS011;57832;46.038;11.398;2023-04-03T13:32:05;0.20;;;0.20;;
70410;SDS011;57832;46.038;11.398;2023-04-03T13:34:36;0.20;;;0.20;;
70410;SDS011;57832;46.038;11.398;2023-04-03T13:37:06;0.20;;;0.20;;
70410;SDS011;57832;46.038;11.398;2023-04-03T13:39:39;0.20;;;0.20;;
70410;SDS011;57832;46.038;11.398;2023-04-03T13:42:26;0.20;;;0.20;;
70410;SDS011;57832;46.038;11.398;2023-04-03T13:47:41;0.10;;;0.10;;
70410;SDS011;57832;46.038;11.398;2023-04-03T13:52:44;0.10;;;0.10;;
70410;SDS011;57832;46.038;11.398;2023-04-03T13:55:17;0.10;;;0.10;;
70410;SDS011;57832;46.038;11.398;2023-04-03T13:57:51;0.00;;;0.00;;
70410;SDS011;57832;46.038;11.398;2023-04-03T14:00:34;0.10;;;0.10;;
70410;SDS011;57832;46.038;11.398;2023-04-03T14:03:25;0.10;;;0.10;;
70410;SDS011;57832;46.038;11.398;2023-04-03T14:05:52;0.00;;;0.00;;
70410;SDS011;57832;46.038;11.398;2023-04-03T14:08:18;0.00;;;0.00;;
70410;SDS011;57832;46.038;11.398;2023-04-03T14:10:44;0.10;;;0.10;;
70410;SDS011;57832;46.038;11.398;2023-04-03T14:13:13;0.00;;;0.00;;
70410;SDS011;57832;46.038;11.398;2023-04-03T14:15:41;0.10;;;0.10;;
70410;SDS011;57832;46.038;11.398;2023-04-03T14:18:10;0.10;;;0.10;;
70410;SDS011;57832;46.038;11.398;2023-04-03T14:20:42;0.00;;;0.00;;
70410;SDS011;57832;46.038;11.398;2023-04-03T14:23:08;0.10;;;0.10;;
70410;SDS011;57832;46.038;11.398;2023-04-03T14:25:35;0.10;;;0.10;;
70410;SDS011;57832;46.038;11.398;2023-04-03T14:28:00;0.10;;;0.10;;
70410;SDS011;57832;46.038;11.398;2023-04-03T14:30:28;0.00;;;0.00;;
70410;SDS011;57832;46.038;11.398;2023-04-03T14:32:56;0.10;;;0.10;;
70410;SDS011;57832;46.038;11.398;2023-04-03T14:35:21;0.00;;;0.00;;
70410;SDS011;57832;46.038;11.398;2023-04-03T14:37:48;0.00;;;0.00;;
70410;SDS011;57832;46.038;11.398;2023-04-03T14:40:17;0.00;;;0.00;;
70410;SDS011;57832;46.038;11.398;2023-04-03T14:42:47;0.08;;;0.08;;
70410;SDS011;57832;46.038;11.398;2023-04-03T14:45:14;0.05;;;0.05;;
70410;SDS011;57832;46.038;11.398;2023-04-03T14:47:47;0.00;;;0.00;;
70410;SDS011;57832;46.038;11.398;2023-04-03T14:50:16;0.05;;;0.05;;
70410;SDS011;57832;46.038;11.398;2023-04-03T14:52:46;0.00;;;0.00;;
70410;SDS011;57832;46.038;11.398;2023-04-03T14:55:14;0.00;;;0.00;;
70410;SDS011;57832;46.038;11.398;2023-04-03T14:57:41;0.00;;;0.00;;
70410;SDS011;57832;46.038;11.398;2023-04-03T15:00:11;0.00;;;0.00;;
70410;SDS011;57832;46.038;11.398;2023-04-03T15:02:39;0.00;;;0.00;;
70410;SDS011;57832;46.038;11.398;2023-04-03T15:05:06;0.00;;;0.00;;
70410;SDS011;57832;46.038;11.398;2023-04-03T15:07:37;0.00;;;0.00;;
70410;SDS011;57832;46.038;11.398;2023-04-03T15:12:45;0.00;;;0.00;;
70410;SDS011;57832;46.038;11.398;2023-04-03T15:15:12;0.00;;;0.00;;
70410;SDS011;57832;46.038;11.398;2023-04-03T15:17:39;0.00;;;0.00;;
70410;SDS011;57832;46.038;11.398;2023-04-03T15:20:13;0.00;;;0.00;;
70410;SDS011;57832;46.038;11.398;2023-04-03T15:22:43;0.00;;;0.00;;
70410;SDS011;57832;46.038;11.398;2023-04-03T15:25:09;0.00;;;0.00;;
70410;SDS011;57832;46.038;11.398;2023-04-03T15:27:35;0.00;;;0.00;;
70410;SDS011;57832;46.038;11.398;2023-04-03T15:30:03;0.00;;;0.00;;
70410;SDS011;57832;46.038;11.398;2023-04-03T15:32:30;0.00;;;0.00;;
70410;SDS011;57832;46.038;11.398;2023-04-03T15:34:56;0.00;;;0.00;;
70410;SDS011;57832;46.038;11.398;2023-04-03T15:37:21;0.00;;;0.00;;
70410;SDS011;57832;46.038;11.398;2023-04-03T15:39:47;0.00;;;0.00;;
70410;SDS011;57832;46.038;11.398;2023-04-03T15:42:13;0.00;;;0.00;;
70410;SDS011;57832;46.038;11.398;2023-04-03T15:44:38;0.00;;;0.00;;
70410;SDS011;57832;46.038;11.398;2023-04-03T15:47:04;0.00;;;0.00;;
70410;SDS011;57832;46.038;11.398;2023-04-03T15:49:30;0.00;;;0.00;;
70410;SDS011;57832;46.038;11.398;2023-04-03T15:51:57;0.00;;;0.00;;
70410;SDS011;57832;46.038;11.398;2023-04-03T15:54:23;0.00;;;0.00;;
70410;SDS011;57832;46.038;11.398;2023-04-03T15:56:49;0.00;;;0.00;;
70410;SDS011;57832;46.038;11.398;2023-04-03T15:59:15;0.00;;;0.00;;
70410;SDS011;57832;46.038;11.398;2023-04-03T16:01:40;0.00;;;0.00;;
70410;SDS011;57832;46.038;11.398;2023-04-03T16:04:07;0.00;;;0.00;;
70410;SDS011;57832;46.038;11.398;2023-04-03T16:06:35;0.00;;;0.00;;
70410;SDS011;57832;46.038;11.398;2023-04-03T16:09:02;0.00;;;0.00;;
70410;SDS011;57832;46.038;11.398;2023-04-03T16:13:54;0.00;;;0.00;;
70410;SDS011;57832;46.038;11.398;2023-04-03T16:16:19;0.00;;;0.00;;
70410;SDS011;57832;46.038;11.398;2023-04-03T16:18:45;0.00;;;0.00;;
70410;SDS011;57832;46.038;11.398;2023-04-03T16:21:15;0.00;;;0.00;;
70410;SDS011;57832;46.038;11.398;2023-04-03T16:23:42;0.00;;;0.00;;
70410;SDS011;57832;46.038;11.398;2023-04-03T16:28:34;0.00;;;0.00;;
70410;SDS011;57832;46.038;11.398;2023-04-03T16:30:59;0.00;;;0.00;;
70410;SDS011;57832;46.038;11.398;2023-04-03T16:33:26;0.00;;;0.00;;
70410;SDS011;57832;46.038;11.398;2023-04-03T16:35:52;0.00;;;0.00;;